Time;durP1;ratioP1;P1;durP2;ratioP2;P2;SDS_P1;SDS_P2;PMS_P1;PMS_P2;Temp;Humidity;BMP_temperature;BMP_pressure;BME280_temperature;BME280_humidity;BME280_pressure;Samples;Min_cycle;Max_cycle;Signal;HPM_P1;HPM_P2
2022/06/21 00:02:12;;;;;;;22.65;13.23;;;;;;;12.54;75.78;101618.94;5035004;28;20053;-54
2022/06/21 00:04:38;;;;;;;22.90;12.98;;;;;;;12.56;75.48;101608.38;5034851;28;20037;-53
2022/06/21 00:07:05;;;;;;;21.00;12.55;;;;;;;12.49;75.53;101603.19;5034692;28;20090;-54
2022/06/21 00:09:30;;;;;;;21.20;12.13;;;;;;;12.50;75.70;101615.94;5034780;28;20528;-54
2022/06/21 00:11:55;;;;;;;22.48;11.80;;;;;;;12.42;76.26;101616.63;5034667;28;20075;-52
2022/06/21 00:14:21;;;;;;;21.70;12.13;;;;;;;12.37;76.39;101611.97;5034996;28;20429;-54
2022/06/21 00:16:46;;;;;;;20.73;12.13;;;;;;;12.35;76.58;101616.19;5034535;28;20071;-54
2022/06/21 00:19:29;;;;;;;21.83;11.55;;;;;;;12.36;76.04;101615.06;5034405;28;20112;-54
2022/06/21 00:21:55;;;;;;;22.20;12.75;;;;;;;12.35;76.73;101624.50;5034695;28;20129;-54
2022/06/21 00:24:20;;;;;;;20.90;12.43;;;;;;;12.37;76.77;101613.94;5032841;28;20124;-53
2022/06/21 00:26:46;;;;;;;21.65;12.23;;;;;;;12.41;76.97;101621.34;5034131;28;20049;-55
2022/06/21 00:29:12;;;;;;;20.92;13.20;;;;;;;12.37;76.87;101617.53;5034387;28;20045;-54
2022/06/21 00:31:48;;;;;;;21.25;12.52;;;;;;;12.21;78.12;101624.41;5034393;28;20107;-55
2022/06/21 00:34:20;;;;;;;22.77;12.73;;;;;;;12.10;79.18;101612.59;5034306;28;20025;-53
2022/06/21 00:36:46;;;;;;;22.10;12.85;;;;;;;12.09;78.41;101606.25;5034488;28;20029;-54
2022/06/21 00:39:15;;;;;;;21.52;12.35;;;;;;;12.08;78.28;101612.09;5034530;28;20053;-53
2022/06/21 00:41:44;;;;;;;22.77;13.27;;;;;;;12.07;78.93;101616.81;5032861;28;20431;-53
2022/06/21 00:44:20;;;;;;;22.73;13.55;;;;;;;12.03;79.09;101618.53;5034065;28;20468;-51
2022/06/21 00:46:53;;;;;;;20.00;12.65;;;;;;;11.95;79.30;101610.84;5034109;28;20083;-54
2022/06/21 00:49:22;;;;;;;;;;;;;;;12.00;77.83;101617.16;5033181;28;20145;-54
2022/06/21 00:51:51;;;;;;;23.98;13.07;;;;;;;11.89;80.03;101609.25;5034032;28;19909;-53
2022/06/21 00:54:20;;;;;;;24.30;14.10;;;;;;;11.80;80.30;101612.69;5033987;28;20546;-54
2022/06/21 00:56:53;;;;;;;21.20;13.15;;;;;;;11.86;80.15;101605.13;5033836;28;20041;-51
2022/06/21 00:59:28;;;;;;;22.83;13.35;;;;;;;11.82;79.74;101595.75;5034116;28;20116;-54
2022/06/21 01:01:57;;;;;;;22.20;13.98;;;;;;;11.83;80.16;101600.16;5033977;28;20032;-54
2022/06/21 01:04:36;;;;;;;22.25;13.63;;;;;;;11.78;80.50;101592.75;5032260;28;20433;-53
2022/06/21 01:07:09;;;;;;;23.70;14.48;;;;;;;11.75;81.15;101603.59;5032917;28;20149;-51
2022/06/21 01:09:46;;;;;;;23.55;13.77;;;;;;;11.66;81.38;101595.94;5033693;28;20026;-50
2022/06/21 01:12:19;;;;;;;22.23;14.10;;;;;;;11.58;81.43;101590.22;5033824;28;20095;-52
2022/06/21 01:14:50;;;;;;;;;;;;;;;11.69;78.41;101597.28;5034097;28;20104;-52
2022/06/21 01:17:17;;;;;;;24.02;13.65;;;;;;;11.65;80.57;101597.06;5033455;28;20394;-54
2022/06/21 01:19:57;;;;;;;20.65;13.38;;;;;;;11.59;80.04;101589.94;5033428;28;20029;-52
2022/06/21 01:22:38;;;;;;;25.75;14.70;;;;;;;11.54;80.64;101582.50;5033506;28;20112;-53
2022/06/21 01:25:09;;;;;;;23.80;14.65;;;;;;;11.47;82.24;101590.34;5033245;28;20029;-53
2022/06/21 01:27:35;;;;;;;23.95;15.15;;;;;;;11.38;82.58;101581.84;5033373;28;20025;-52
2022/06/21 01:30:01;;;;;;;22.73;13.80;;;;;;;11.32;82.69;101574.72;5033364;28;20052;-52
2022/06/21 01:32:27;;;;;;;23.58;14.82;;;;;;;11.31;82.42;101583.31;5033211;28;20040;-53
2022/06/21 01:34:53;;;;;;;24.70;14.88;;;;;;;11.28;82.99;101581.94;5033271;28;20034;-52
2022/06/21 01:37:26;;;;;;;23.92;14.40;;;;;;;11.25;83.42;101585.28;5033121;28;20036;-52
2022/06/21 01:39:57;;;;;;;24.08;14.73;;;;;;;11.18;83.57;101585.66;5033241;28;20029;-50
2022/06/21 01:42:33;;;;;;;23.90;14.60;;;;;;;11.17;84.04;101588.69;5033429;28;20064;-51
2022/06/21 01:45:03;;;;;;;23.80;14.35;;;;;;;11.11;84.03;101596.22;5032973;28;20346;-52
2022/06/21 01:47:40;;;;;;;23.92;14.38;;;;;;;11.15;84.22;101591.78;5032963;28;20140;-53
2022/06/21 01:50:08;;;;;;;23.45;14.65;;;;;;;11.10;84.82;101585.47;5032982;28;20393;-53
2022/06/21 01:52:37;;;;;;;23.95;14.77;;;;;;;10.99;84.76;101587.50;5032903;28;20029;-50
2022/06/21 01:55:08;;;;;;;21.60;14.73;;;;;;;10.87;85.02;101583.16;5031457;28;20079;-49
2022/06/21 01:57:36;;;;;;;25.05;15.30;;;;;;;10.90;84.84;101593.66;5032933;28;20025;-52
2022/06/21 02:00:04;;;;;;;25.55;14.98;;;;;;;10.81;85.64;101583.50;5032824;28;20033;-51
2022/06/21 02:02:42;;;;;;;24.55;15.50;;;;;;;10.69;85.96;101576.38;5032801;28;20028;-52
2022/06/21 02:05:13;;;;;;;24.35;15.73;;;;;;;10.63;86.49;101572.00;5032608;28;20468;-50
2022/06/21 02:07:43;;;;;;;26.42;15.10;;;;;;;10.53;86.49;101556.31;5032690;28;20094;-51
2022/06/21 02:10:15;;;;;;;23.00;14.80;;;;;;;10.57;86.68;101567.66;5033237;28;20029;-53
2022/06/21 02:12:48;;;;;;;28.50;16.55;;;;;;;10.54;87.65;101566.25;5032545;28;20041;-51
2022/06/21 02:15:25;;;;;;;25.48;15.82;;;;;;;10.63;87.11;101565.66;5032599;28;20073;-50
2022/06/21 02:17:53;;;;;;;26.60;16.05;;;;;;;10.60;86.95;101565.13;5032272;28;20547;-53
2022/06/21 02:20:25;;;;;;;25.55;15.65;;;;;;;10.60;87.14;101564.28;5032199;28;20070;-52
2022/06/21 02:22:51;;;;;;;23.98;15.98;;;;;;;10.63;88.06;101568.44;5032705;28;20032;-51
2022/06/21 02:25:22;;;;;;;27.65;15.25;;;;;;;10.52;87.89;101562.13;5031924;28;20158;-50
2022/06/21 02:27:49;;;;;;;25.85;15.48;;;;;;;10.50;88.27;101559.66;5032340;28;20132;-52
2022/06/21 02:30:22;;;;;;;29.45;19.65;;;;;;;10.47;88.91;101554.69;5032183;28;20388;-51
2022/06/21 02:32:49;;;;;;;27.65;16.50;;;;;;;10.49;88.06;101565.47;5032066;28;20032;-50
2022/06/21 02:35:45;;;;;;;27.23;16.40;;;;;;;10.49;87.83;101555.25;5032020;28;20033;-51
2022/06/21 02:38:15;;;;;;;26.00;16.15;;;;;;;10.44;89.19;101552.50;5032151;28;20117;-53
2022/06/21 02:40:50;;;;;;;25.90;16.23;;;;;;;10.36;89.14;101525.44;5031924;28;20115;-54
2022/06/21 02:43:24;;;;;;;24.85;16.05;;;;;;;10.31;89.28;101515.22;5031988;28;20057;-54
2022/06/21 02:45:55;;;;;;;24.65;15.55;;;;;;;10.24;90.04;101511.97;5032034;28;20039;-51
2022/06/21 02:48:35;;;;;;;25.38;15.48;;;;;;;10.22;89.57;101508.66;5031827;28;20115;-53
2022/06/21 02:51:07;;;;;;;25.25;15.32;;;;;;;10.21;90.22;101510.63;5031721;28;20395;-51
2022/06/21 02:53:37;;;;;;;23.63;15.65;;;;;;;10.20;89.61;101513.69;5031837;28;20118;-53
2022/06/21 02:56:19;;;;;;;25.25;16.45;;;;;;;10.19;90.52;101523.91;5031920;28;20021;-53
2022/06/21 02:58:48;;;;;;;25.70;16.05;;;;;;;10.09;90.07;101508.22;5031908;28;20064;-52
2022/06/21 03:01:39;;;;;;;24.83;16.00;;;;;;;10.16;89.40;101521.69;5030203;28;20030;-51
2022/06/21 03:04:06;;;;;;;25.88;16.35;;;;;;;10.15;90.23;101523.66;5030205;28;20029;-54
2022/06/21 03:06:32;;;;;;;26.55;14.63;;;;;;;10.13;89.67;101525.06;5031623;28;20025;-51
2022/06/21 03:09:02;;;;;;;23.52;14.80;;;;;;;10.15;89.28;101539.41;5031352;28;20029;-54
2022/06/21 03:11:33;;;;;;;24.75;14.68;;;;;;;10.14;88.39;101538.56;5031003;28;20091;-53
2022/06/21 03:14:04;;;;;;;25.55;15.80;;;;;;;10.13;89.72;101538.88;5031058;28;20457;-51
2022/06/21 03:16:30;;;;;;;23.27;15.85;;;;;;;10.17;89.68;101544.66;5031102;28;20091;-53
2022/06/21 03:19:00;;;;;;;24.92;15.45;;;;;;;10.13;89.67;101547.16;5030761;28;20460;-50
2022/06/21 03:21:29;;;;;;;24.38;14.38;;;;;;;10.15;89.11;101551.28;5030820;28;20044;-53
2022/06/21 03:23:57;;;;;;;24.25;15.23;;;;;;;10.16;88.12;101560.41;5030953;28;20029;-58
2022/06/21 03:26:23;;;;;;;24.73;15.15;;;;;;;10.15;88.27;101559.59;5030901;28;20124;-54
2022/06/21 03:28:51;;;;;;;25.08;15.02;;;;;;;10.15;88.49;101569.84;5030797;28;20053;-53
2022/06/21 03:31:22;;;;;;;24.95;15.60;;;;;;;10.18;88.74;101573.97;5030319;28;20029;-51
2022/06/21 03:33:52;;;;;;;25.05;15.55;;;;;;;10.14;89.26;101569.00;5031044;28;20037;-53
2022/06/21 03:36:22;;;;;;;24.13;15.68;;;;;;;10.13;89.56;101567.34;5030685;28;20098;-54
2022/06/21 03:38:52;;;;;;;25.02;15.82;;;;;;;10.13;89.60;101566.53;5031147;28;20036;-52
2022/06/21 03:44:11;;;;;;;26.48;15.88;;;;;;;10.04;89.75;101546.13;5031355;28;20067;-52
2022/06/21 03:46:45;;;;;;;25.05;16.33;;;;;;;10.07;90.21;101532.53;5030656;28;20061;-51
2022/06/21 03:49:39;;;;;;;25.70;16.48;;;;;;;10.48;89.38;101517.63;5030801;28;20108;-52
2022/06/21 03:52:09;;;;;;;22.92;15.27;;;;;;;11.26;85.63;101514.94;5030514;28;20053;-54
2022/06/21 03:54:44;;;;;;;23.08;14.88;;;;;;;11.93;81.63;101507.72;5030945;28;20032;-53
2022/06/21 03:57:26;;;;;;;23.98;15.23;;;;;;;12.26;80.14;101505.03;5030536;28;20030;-51
2022/06/21 03:59:59;;;;;;;23.13;14.85;;;;;;;12.41;78.80;101509.53;5030586;28;20409;-53
2022/06/21 04:02:37;;;;;;;24.00;14.50;;;;;;;12.13;79.03;101495.53;5030330;28;20025;-53
2022/06/21 04:05:10;;;;;;;26.48;14.82;;;;;;;11.73;79.58;101504.13;5030590;28;20030;-52
2022/06/21 04:08:00;;;;;;;24.33;14.55;;;;;;;11.53;80.67;101510.72;5030505;28;20044;-52
2022/06/21 04:10:41;;;;;;;22.80;14.57;;;;;;;11.27;81.79;101513.00;5030492;28;20052;-52
2022/06/21 04:13:41;;;;;;;23.42;15.80;;;;;;;11.14;82.68;101520.88;5030287;28;20472;-53
2022/06/21 04:16:31;;;;;;;23.05;15.93;;;;;;;10.99;83.34;101529.38;5030445;28;20095;-53
2022/06/21 04:19:35;;;;;;;27.35;15.85;;;;;;;10.91;83.57;101519.75;5030131;28;20124;-53
2022/06/21 04:22:11;;;;;;;23.98;15.95;;;;;;;10.81;84.64;101520.69;4990004;28;20460;-53
2022/06/21 04:24:48;;;;;;;25.05;15.50;;;;;;;10.74;85.16;101512.72;5030192;28;20041;-51
2022/06/21 04:27:22;;;;;;;26.98;16.58;;;;;;;10.76;85.66;101520.72;5030263;28;20063;-53
2022/06/21 04:30:11;;;;;;;26.88;16.73;;;;;;;10.72;86.10;101528.78;5030062;28;20025;-52
2022/06/21 04:32:55;;;;;;;25.35;16.58;;;;;;;10.77;85.96;101523.19;5030345;28;20112;-53
2022/06/21 04:35:32;;;;;;;;;;;;;;;10.83;83.72;101512.06;5030391;28;20488;-53
2022/06/21 04:38:13;;;;;;;26.98;16.38;;;;;;;10.81;85.95;101525.38;5030104;28;20319;-53
2022/06/21 04:40:48;;;;;;;24.45;17.02;;;;;;;10.84;86.36;101517.31;5030211;28;20529;-54
2022/06/21 04:43:29;;;;;;;25.92;16.95;;;;;;;10.88;86.67;101512.84;5033454;28;20030;-53
2022/06/21 04:45:59;;;;;;;26.20;17.52;;;;;;;10.94;86.91;101505.31;5033479;28;20072;-54
2022/06/21 04:48:47;;;;;;;30.50;17.98;;;;;;;10.94;87.48;101505.31;5033624;28;20029;-52
2022/06/21 04:51:39;;;;;;;27.02;17.38;;;;;;;10.91;87.56;101501.19;5033846;28;20045;-51
2022/06/21 04:54:12;;;;;;;26.15;16.58;;;;;;;11.01;87.97;101497.50;5032541;28;20057;-51
2022/06/21 04:56:51;;;;;;;26.67;16.38;;;;;;;11.08;87.59;101497.97;5033472;28;20026;-53
2022/06/21 04:59:31;;;;;;;26.35;17.50;;;;;;;11.08;87.26;101489.66;5033740;28;20033;-52
2022/06/21 05:01:57;;;;;;;24.35;16.85;;;;;;;11.19;87.21;101509.75;5033512;28;20449;-52
2022/06/21 05:04:33;;;;;;;25.00;16.30;;;;;;;11.27;86.87;101501.94;5033589;28;20515;-53
2022/06/21 05:07:03;;;;;;;27.73;16.90;;;;;;;11.34;87.05;101502.38;5033402;28;20439;-51
2022/06/21 05:09:32;;;;;;;27.05;16.92;;;;;;;11.40;86.46;101492.88;5033510;28;20052;-53
2022/06/21 05:12:04;;;;;;;26.52;17.90;;;;;;;11.55;86.15;101497.41;5033246;28;20021;-53
2022/06/21 05:14:36;;;;;;;25.42;16.52;;;;;;;11.67;85.94;101500.59;5033544;28;20033;-51
2022/06/21 05:17:04;;;;;;;26.20;16.13;;;;;;;11.74;85.67;101488.31;5033337;28;20033;-53
2022/06/21 05:19:36;;;;;;;23.80;16.00;;;;;;;11.80;85.53;101499.03;5033953;28;20036;-54
2022/06/21 05:22:16;;;;;;;23.27;15.88;;;;;;;11.89;85.11;101504.75;5033312;28;20040;-53
2022/06/21 05:24:44;;;;;;;26.20;16.83;;;;;;;11.96;84.77;101496.88;5033183;28;20337;-53
2022/06/21 05:27:17;;;;;;;24.20;16.20;;;;;;;12.07;84.38;101497.56;5033083;28;20069;-53
2022/06/21 05:30:03;;;;;;;23.83;15.02;;;;;;;12.21;83.46;101502.34;5033277;28;20026;-53
2022/06/21 05:32:34;;;;;;;24.83;15.07;;;;;;;12.30;83.14;101493.03;5031552;28;20392;-52
2022/06/21 05:35:11;;;;;;;24.65;14.80;;;;;;;12.37;82.43;101483.53;5032968;28;20037;-50
2022/06/21 05:37:48;;;;;;;23.98;15.20;;;;;;;12.43;82.76;101479.53;5032883;28;20055;-53
2022/06/21 05:40:23;;;;;;;24.98;15.45;;;;;;;12.46;82.61;101490.03;5032994;28;20041;-51
2022/06/21 05:42:49;;;;;;;25.80;15.63;;;;;;;12.51;82.87;101500.22;5032659;28;20105;-51
2022/06/21 05:45:16;;;;;;;23.60;15.13;;;;;;;12.58;82.29;101489.53;5032782;28;20108;-50
2022/06/21 05:47:54;;;;;;;25.52;15.48;;;;;;;12.61;81.81;101495.31;5032714;28;20087;-53
2022/06/21 05:50:26;;;;;;;23.95;14.45;;;;;;;12.71;80.76;101502.63;5032670;28;20032;-50
2022/06/21 05:52:54;;;;;;;24.83;15.60;;;;;;;12.84;80.41;101512.13;5032041;28;20124;-51
2022/06/21 05:55:28;;;;;;;24.85;14.63;;;;;;;12.86;79.69;101498.75;5032520;28;20031;-50
2022/06/21 05:57:56;;;;;;;;;;;;;;;12.98;79.84;101503.81;5033164;28;20117;-54
2022/06/21 06:00:28;;;;;;;21.88;13.35;;;;;;;13.02;78.85;101510.41;5032687;28;19947;-53
2022/06/21 06:03:00;;;;;;;22.02;13.25;;;;;;;13.04;78.77;101513.69;5032582;28;20037;-53
2022/06/21 06:05:32;;;;;;;23.58;13.77;;;;;;;13.19;79.00;101520.09;5032404;28;20029;-52
2022/06/21 06:08:29;;;;;;;21.70;13.27;;;;;;;13.33;78.68;101520.94;5032391;28;20022;-52
2022/06/21 06:10:56;;;;;;;22.23;14.55;;;;;;;13.46;78.20;101519.31;5026591;28;20044;-54
2022/06/21 06:13:30;;;;;;;21.58;12.20;;;;;;;13.56;77.28;101527.44;5031153;28;20404;-52
2022/06/21 06:16:00;;;;;;;22.73;12.00;;;;;;;13.67;76.38;101538.34;5032470;28;20052;-53
2022/06/21 06:18:36;;;;;;;20.98;11.85;;;;;;;13.75;75.55;101543.19;5032556;28;20030;-53
2022/06/21 06:21:14;;;;;;;20.02;11.23;;;;;;;13.91;75.69;101540.06;5032326;28;20096;-53
2022/06/21 06:23:57;;;;;;;19.92;11.63;;;;;;;14.09;75.19;101549.41;5032211;28;20133;-53
2022/06/21 06:26:31;;;;;;;20.65;11.50;;;;;;;14.23;74.03;101555.75;5032679;28;20073;-52
2022/06/21 06:29:36;;;;;;;19.45;11.27;;;;;;;14.37;74.16;101558.47;5032405;28;20033;-54
2022/06/21 06:32:14;;;;;;;22.10;11.30;;;;;;;14.47;72.19;101552.66;4952224;28;20044;-53
2022/06/21 06:34:45;;;;;;;20.17;10.48;;;;;;;14.49;71.42;101550.41;5024583;28;20048;-54
2022/06/21 06:37:22;;;;;;;20.30;11.05;;;;;;;14.62;71.43;101548.69;5031765;28;20033;-53
2022/06/21 06:39:47;;;;;;;20.67;11.75;;;;;;;14.75;69.79;101560.91;5031943;28;20136;-54
2022/06/21 06:42:20;;;;;;;19.38;10.43;;;;;;;14.84;70.96;101566.56;5031905;28;20109;-54
2022/06/21 06:44:52;;;;;;;20.33;11.18;;;;;;;14.96;69.98;101554.84;5031745;28;20026;-54
2022/06/21 06:47:25;;;;;;;21.27;10.20;;;;;;;15.09;68.91;101551.16;5031696;28;20179;-54
2022/06/21 06:49:57;;;;;;;21.02;10.68;;;;;;;15.12;68.27;101558.03;5031946;28;20104;-50
2022/06/21 06:52:37;;;;;;;19.77;10.95;;;;;;;15.17;68.21;101548.72;5031658;28;20022;-54
2022/06/21 06:55:13;;;;;;;20.70;10.52;;;;;;;15.30;67.88;101561.75;5031723;28;20022;-53
2022/06/21 06:57:44;;;;;;;18.05;10.18;;;;;;;15.42;67.35;101549.97;5031988;28;20034;-53
2022/06/21 07:00:18;;;;;;;18.70;9.75;;;;;;;15.48;67.83;101550.66;5032139;28;20091;-53
2022/06/21 07:02:49;;;;;;;18.10;10.32;;;;;;;15.41;67.14;101557.50;5031678;28;20034;-54
2022/06/21 07:05:40;;;;;;;20.85;10.85;;;;;;;15.45;67.66;101557.69;5030759;28;20108;-53
2022/06/21 07:08:20;;;;;;;20.30;10.82;;;;;;;15.52;67.63;101562.78;5031909;28;20037;-53
2022/06/21 07:10:49;;;;;;;20.55;11.38;;;;;;;15.57;67.37;101563.47;5031391;28;20451;-53
2022/06/21 07:13:15;;;;;;;19.50;11.20;;;;;;;15.64;66.78;101565.81;5031514;28;20030;-53
2022/06/21 07:15:44;;;;;;;20.55;10.30;;;;;;;15.72;66.70;101558.63;5031463;28;20025;-53
2022/06/21 07:18:16;;;;;;;18.63;10.43;;;;;;;15.77;65.76;101552.88;5031130;28;20091;-53
2022/06/21 07:20:45;;;;;;;18.85;9.85;;;;;;;15.87;65.67;101555.38;5031232;28;20418;-53
2022/06/21 07:23:14;;;;;;;21.65;10.70;;;;;;;15.96;65.43;101563.78;5031477;28;20535;-53
2022/06/21 07:25:52;;;;;;;18.02;9.68;;;;;;;16.01;65.02;101548.84;5031262;28;20076;-54
2022/06/21 07:28:27;;;;;;;20.48;10.52;;;;;;;16.12;65.10;101538.19;5031461;28;20069;-53
2022/06/21 07:30:55;;;;;;;21.25;11.38;;;;;;;16.09;63.06;101530.47;5031048;28;20055;-53
2022/06/21 07:33:34;;;;;;;21.92;12.10;;;;;;;16.16;63.27;101528.84;5030776;28;20444;-53
2022/06/21 07:36:11;;;;;;;19.08;10.73;;;;;;;16.09;62.88;101527.66;5029872;28;20124;-54
2022/06/21 07:38:44;;;;;;;18.83;10.18;;;;;;;16.15;63.18;101535.56;5031409;28;20087;-54
2022/06/21 07:41:12;;;;;;;20.60;10.02;;;;;;;16.20;61.84;101546.56;5030881;28;20111;-54
2022/06/21 07:43:48;;;;;;;18.65;10.00;;;;;;;16.19;62.05;101552.47;5031142;28;20021;-54
2022/06/21 07:46:51;;;;;;;19.90;10.05;;;;;;;16.15;62.16;101541.13;5031042;28;20200;-51
2022/06/21 07:49:40;;;;;;;18.88;10.27;;;;;;;16.28;63.11;101542.13;5028171;28;20475;-51
2022/06/21 07:52:14;;;;;;;19.17;10.60;;;;;;;16.34;61.17;101542.78;5031210;28;20022;-54
2022/06/21 07:54:45;;;;;;;;;;;;;;;16.47;62.02;101546.56;5031720;28;20103;-51
2022/06/21 07:57:17;;;;;;;19.63;10.13;;;;;;;16.48;62.29;101525.84;5030974;28;19913;-53
2022/06/21 07:59:48;;;;;;;18.33;10.75;;;;;;;16.64;61.48;101540.16;5030979;28;20372;-54
2022/06/21 08:08:35;;;;;;;18.80;10.20;;;;;;;16.94;60.14;101527.13;5031574;28;20056;-52
2022/06/21 08:11:07;;;;;;;17.80;10.30;;;;;;;17.10;59.46;101529.34;5031269;28;20030;-53
2022/06/21 08:13:32;;;;;;;19.67;10.23;;;;;;;17.18;58.10;101522.09;5030899;28;20033;-53
2022/06/21 08:16:21;;;;;;;20.10;10.63;;;;;;;17.32;59.53;101500.34;5031874;28;20088;-51
2022/06/21 08:19:00;;;;;;;17.45;10.25;;;;;;;17.24;56.78;101516.00;5033244;28;20029;-52
2022/06/21 08:21:35;;;;;;;20.25;10.80;;;;;;;17.23;57.66;101507.97;5034798;28;20096;-51
2022/06/21 08:24:07;;;;;;;19.58;11.48;;;;;;;17.13;58.34;101506.34;5034343;28;20473;-54
2022/06/21 08:26:44;;;;;;;19.67;10.48;;;;;;;17.19;58.25;101506.97;5032900;28;20064;-52
2022/06/21 08:29:22;;;;;;;18.80;9.95;;;;;;;17.37;58.04;101508.53;5034334;28;20091;-54
2022/06/21 08:31:55;;;;;;;20.77;10.80;;;;;;;17.42;58.39;101511.16;5034435;28;20029;-53
2022/06/21 08:34:45;;;;;;;19.27;10.40;;;;;;;17.46;58.71;101511.28;5034440;28;20484;-53
2022/06/21 08:37:36;;;;;;;21.45;10.63;;;;;;;17.36;57.55;101492.91;5034326;28;20272;-51
2022/06/21 08:40:20;;;;;;;19.25;10.68;;;;;;;17.47;57.80;101498.94;5034403;28;20037;-53
2022/06/21 08:43:13;;;;;;;19.92;10.88;;;;;;;17.63;56.72;101501.97;5034290;28;20069;-54
2022/06/21 08:45:57;;;;;;;18.70;10.10;;;;;;;17.62;56.37;101487.16;5034502;28;20033;-54
2022/06/21 08:48:31;;;;;;;19.98;10.30;;;;;;;17.73;56.68;101487.59;5034128;28;20030;-53
2022/06/21 08:51:16;;;;;;;19.25;10.65;;;;;;;17.90;56.08;101483.03;5033847;28;20163;-54
2022/06/21 08:53:56;;;;;;;18.98;10.18;;;;;;;18.13;55.40;101480.75;5034137;28;20469;-53
2022/06/21 08:56:30;;;;;;;17.55;10.20;;;;;;;18.21;55.02;101482.66;5033982;28;20472;-54
2022/06/21 08:59:10;;;;;;;19.23;10.48;;;;;;;18.46;55.21;101467.91;5034010;28;20040;-54
2022/06/21 09:01:42;;;;;;;19.65;11.27;;;;;;;18.46;54.74;101460.31;5034072;28;20040;-54
2022/06/21 09:04:15;;;;;;;20.95;11.60;;;;;;;18.17;54.06;101450.06;5033930;28;20541;-53
2022/06/21 09:07:06;;;;;;;19.75;11.35;;;;;;;18.11;54.03;101443.03;5032274;28;20446;-53
2022/06/21 09:09:48;;;;;;;19.73;10.85;;;;;;;18.16;55.15;101440.84;5034167;28;20113;-54
2022/06/21 09:12:32;;;;;;;18.30;10.82;;;;;;;18.36;55.22;101435.53;5033725;28;20056;-52
2022/06/21 09:15:28;;;;;;;18.20;11.20;;;;;;;18.45;54.71;101441.06;5033557;28;20112;-53
2022/06/21 09:18:14;;;;;;;19.27;11.38;;;;;;;18.50;54.24;101447.28;5033567;28;20044;-51
2022/06/21 09:20:58;;;;;;;23.33;11.93;;;;;;;18.55;54.41;101441.44;5033608;28;20061;-55
2022/06/21 09:23:49;;;;;;;21.42;11.65;;;;;;;18.55;54.70;101441.44;5033729;28;20090;-54
2022/06/21 09:26:42;;;;;;;20.10;10.55;;;;;;;18.66;54.30;101427.78;5033268;28;20060;-53
2022/06/21 09:29:31;;;;;;;19.58;10.88;;;;;;;18.80;53.55;101433.06;5032831;28;20104;-53
2022/06/21 09:32:08;;;;;;;19.60;11.13;;;;;;;18.76;53.02;101425.69;5033299;28;20029;-53
2022/06/21 09:34:59;;;;;;;19.77;11.32;;;;;;;18.76;52.54;101431.31;5033254;28;20037;-55
2022/06/21 09:37:30;;;;;;;19.20;10.98;;;;;;;18.74;52.02;101419.66;5033330;28;20579;-55
2022/06/21 09:40:11;;;;;;;22.10;11.98;;;;;;;18.94;52.31;101417.94;5033347;28;20033;-54
2022/06/21 09:42:53;;;;;;;20.17;10.95;;;;;;;19.07;51.88;101399.13;5033259;28;20104;-52
2022/06/21 09:45:35;;;;;;;19.23;10.65;;;;;;;19.42;51.16;101407.03;5033181;28;20142;-55
2022/06/21 09:48:17;;;;;;;17.63;9.52;;;;;;;19.66;49.92;101411.75;5033076;28;20459;-54
2022/06/21 09:51:07;;;;;;;18.65;10.60;;;;;;;19.74;49.29;101395.97;5033036;28;20061;-54
2022/06/21 09:54:10;;;;;;;17.63;10.18;;;;;;;19.62;48.27;101408.03;5032893;28;20036;-54
2022/06/21 09:57:07;;;;;;;17.47;9.90;;;;;;;19.59;47.88;101409.56;5033141;28;20041;-55
2022/06/21 09:59:56;;;;;;;18.35;9.88;;;;;;;19.85;49.69;101408.34;5032965;28;20033;-54
2022/06/21 10:02:34;;;;;;;19.42;9.57;;;;;;;20.14;47.95;101405.53;5032827;28;20090;-55
2022/06/21 10:05:08;;;;;;;20.38;10.25;;;;;;;20.35;48.91;101408.94;5032867;28;20460;-54
2022/06/21 10:07:33;;;;;;;16.98;9.80;;;;;;;20.25;45.86;101403.84;5032989;28;20506;-54
2022/06/21 10:10:33;;;;;;;18.60;9.77;;;;;;;20.02;46.82;101400.78;5032726;28;20030;-54
2022/06/21 10:13:18;;;;;;;17.13;9.20;;;;;;;19.81;45.71;101398.97;5032693;28;20068;-55
2022/06/21 10:16:00;;;;;;;17.52;9.82;;;;;;;19.76;47.75;101393.63;5032107;28;20041;-55
2022/06/21 10:18:47;;;;;;;16.67;9.30;;;;;;;19.76;46.01;101400.03;5032696;28;20033;-52
2022/06/21 10:21:42;;;;;;;14.82;8.82;;;;;;;19.76;47.28;101400.03;5032531;28;20125;-53
2022/06/21 10:24:34;;;;;;;16.88;8.70;;;;;;;20.06;46.45;101404.53;5032572;28;20025;-53
2022/06/21 10:27:25;;;;;;;16.75;9.32;;;;;;;20.25;46.98;101410.28;5032407;28;20056;-53
2022/06/21 10:30:11;;;;;;;16.75;9.43;;;;;;;20.47;46.74;101402.44;5032016;28;20025;-51
2022/06/21 10:32:57;;;;;;;20.08;9.70;;;;;;;20.32;44.72;101401.22;5032258;28;20044;-54
2022/06/21 10:35:28;;;;;;;15.98;9.20;;;;;;;20.32;45.09;101406.84;5032487;28;20417;-53
2022/06/21 10:38:34;;;;;;;16.38;9.30;;;;;;;20.43;46.40;101409.97;5032051;28;20052;-53
2022/06/21 10:41:17;;;;;;;17.98;9.48;;;;;;;20.66;45.79;101406.53;5032411;28;20104;-53
2022/06/21 10:43:54;;;;;;;16.77;8.77;;;;;;;20.78;45.80;101414.09;5030706;28;20415;-53
2022/06/21 10:46:49;;;;;;;17.33;8.80;;;;;;;21.01;44.49;101408.66;5031939;28;20036;-54
2022/06/21 10:49:33;;;;;;;;;;;;;;;21.30;44.67;101407.31;5032707;28;20059;-54
2022/06/21 10:52:13;;;;;;;17.85;9.32;;;;;;;21.28;44.85;101401.22;5031894;28;19920;-53
2022/06/21 10:55:16;;;;;;;18.83;9.18;;;;;;;21.34;45.16;101399.78;5031862;28;20064;-54
2022/06/21 10:57:51;;;;;;;15.77;9.07;;;;;;;21.52;44.53;101410.63;5031755;28;20029;-54
2022/06/21 11:03:21;;;;;;;17.33;9.10;;;;;;;21.32;42.76;101410.59;5032006;28;20052;-54
2022/06/21 11:06:04;;;;;;;19.20;10.02;;;;;;;21.50;43.52;101401.72;5031825;28;20101;-55
2022/06/21 11:09:00;;;;;;;14.93;8.30;;;;;;;21.54;43.84;101402.59;5031790;28;20040;-55
2022/06/21 11:11:35;;;;;;;16.77;8.75;;;;;;;21.55;42.69;101404.25;5031681;28;20060;-54
2022/06/21 11:14:22;;;;;;;14.98;8.35;;;;;;;21.69;42.41;101403.75;5031576;28;20104;-54
2022/06/21 11:17:05;;;;;;;17.33;8.70;;;;;;;21.92;42.69;101403.84;5030505;28;20060;-54
2022/06/21 11:19:49;;;;;;;15.60;8.63;;;;;;;21.68;41.83;101402.13;5031712;28;20105;-54
2022/06/21 11:22:33;;;;;;;15.35;8.75;;;;;;;21.60;42.76;101398.38;5031510;28;20030;-53
2022/06/21 11:25:07;;;;;;;17.75;9.20;;;;;;;21.72;43.07;101403.03;5031278;28;20026;-54
2022/06/21 11:27:54;;;;;;;17.90;9.30;;;;;;;21.93;42.79;101399.84;5031315;28;20032;-55
2022/06/21 11:30:47;;;;;;;17.33;8.50;;;;;;;21.96;42.60;101410.38;5031097;28;20029;-55
2022/06/21 11:33:30;;;;;;;14.57;8.50;;;;;;;21.93;42.48;101405.47;5031796;28;20032;-55
2022/06/21 11:36:16;;;;;;;15.75;9.18;;;;;;;21.62;42.36;101397.97;5031420;28;20102;-54
2022/06/21 11:39:00;;;;;;;16.73;9.13;;;;;;;21.53;42.64;101388.91;5031315;28;20108;-54
2022/06/21 11:42:06;;;;;;;18.60;9.00;;;;;;;21.37;42.67;101401.03;5031017;28;20496;-55
2022/06/21 11:44:46;;;;;;;16.30;9.02;;;;;;;21.38;43.82;101396.22;5031411;28;20029;-54
2022/06/21 11:47:20;;;;;;;16.58;9.52;;;;;;;21.50;43.02;101404.53;5031005;28;20029;-55
2022/06/21 11:50:11;;;;;;;16.77;9.35;;;;;;;21.63;41.75;101403.25;5031651;28;20108;-54
2022/06/21 11:53:14;;;;;;;17.50;9.30;;;;;;;21.86;43.14;101399.69;5037708;28;20026;-53
2022/06/21 11:55:57;;;;;;;15.93;8.55;;;;;;;21.98;42.16;101393.09;5037762;28;20095;-55
2022/06/21 11:58:36;;;;;;;16.90;9.18;;;;;;;22.02;41.46;101390.34;5037657;28;20423;-54
2022/06/21 12:01:17;;;;;;;17.17;9.40;;;;;;;21.93;41.93;101396.22;5037463;28;20037;-55
2022/06/21 12:04:27;;;;;;;17.38;9.13;;;;;;;22.01;42.07;101378.28;5037384;28;20376;-55
2022/06/21 12:07:20;;;;;;;18.20;9.60;;;;;;;21.98;42.42;101379.00;5021985;28;20033;-55
2022/06/21 12:09:55;;;;;;;18.10;9.43;;;;;;;21.81;41.95;101367.03;5031385;28;20041;-55